Time;durP1;ratioP1;P1;durP2;ratioP2;P2;SDS_P1;SDS_P2;PMS_P1;PMS_P2;Temp;Humidity;BMP_temperature;BMP_pressure;BME280_temperature;BME280_humidity;BME280_pressure;Samples;Min_cycle;Max_cycle;Signal;HPM_P1;HPM_P2
2021/07/20 00:01:26;;;;;;;;;35.00;31.75;;;;;27.98;65.15;100422.63;5095078;28;8840;-76
2021/07/20 00:04:22;;;;;;;;;31.20;29.60;;;;;28.21;65.97;100424.28;5082467;28;8812;-75
2021/07/20 00:07:18;;;;;;;;;34.40;31.40;;;;;28.17;65.42;100426.47;5095334;28;8843;-75
2021/07/20 00:10:17;;;;;;;;;26.00;26.00;;;;;28.34;65.66;100425.06;5095225;28;8843;-75
2021/07/20 00:13:13;;;;;;;;;27.20;27.20;;;;;28.39;65.51;100437.94;5094393;28;8871;-75
2021/07/20 00:16:09;;;;;;;;;30.00;29.20;;;;;28.22;65.21;100428.75;5095340;28;8828;-75
2021/07/20 00:19:05;;;;;;;;;30.40;29.40;;;;;28.29;65.17;100422.78;5095174;28;8853;-75
2021/07/20 00:22:00;;;;;;;;;33.40;31.00;;;;;28.34;65.56;100424.28;5092783;28;8893;-75
2021/07/20 00:24:56;;;;;;;;;33.60;30.80;;;;;28.17;65.48;100429.31;5092972;28;8850;-75
2021/07/20 00:27:51;;;;;;;;;29.00;28.60;;;;;28.38;65.14;100428.59;5094723;28;8823;-75
2021/07/20 00:30:48;;;;;;;;;31.80;30.60;;;;;28.46;65.88;100432.78;5094814;28;8912;-75
2021/07/20 00:33:45;;;;;;;;;32.40;29.40;;;;;28.54;65.53;100433.31;5094801;28;8978;-75
2021/07/20 00:36:41;;;;;;;;;29.80;29.20;;;;;28.48;64.44;100418.09;5081590;28;8847;-75
2021/07/20 00:39:36;;;;;;;;;26.60;26.60;;;;;28.49;65.14;100423.31;5101336;28;8944;-75
2021/07/20 00:42:32;;;;;;;;;29.60;29.00;;;;;28.48;65.45;100418.09;5115331;28;8845;-75
2021/07/20 00:45:28;;;;;;;;;32.80;29.80;;;;;28.46;64.58;100414.94;5114798;28;8817;-75
2021/07/20 00:48:25;;;;;;;;;29.40;29.00;;;;;28.53;65.74;100412.63;5114667;28;8848;-75
2021/07/20 00:51:20;;;;;;;;;30.80;29.80;;;;;28.52;65.47;100416.72;5100875;28;8848;-75
2021/07/20 00:54:16;;;;;;;;;31.80;30.20;;;;;28.50;65.47;100404.19;5114497;28;8821;-75
2021/07/20 00:57:12;;;;;;;;;32.80;31.00;;;;;28.49;64.80;100406.25;5114043;28;8825;-75
2021/07/20 01:00:11;;;;;;;;;33.00;30.80;;;;;28.59;64.57;100409.16;5114376;28;8810;-75
2021/07/20 01:03:07;;;;;;;;;34.40;31.60;;;;;28.41;65.44;100413.44;5114530;28;8818;-75
2021/07/20 01:06:04;;;;;;;;;27.20;27.20;;;;;28.50;65.78;100407.03;5114847;28;8846;-74
2021/07/20 01:09:03;;;;;;;;;33.60;30.60;;;;;28.36;65.68;100411.19;5112748;28;9575;-75
2021/07/20 01:11:58;;;;;;;;;32.40;30.00;;;;;28.30;65.92;100407.38;5098436;28;8836;-75
2021/07/20 01:14:55;;;;;;;;;36.80;32.40;;;;;28.37;65.42;100415.66;5093456;28;8870;-75
2021/07/20 01:17:55;;;;;;;;;33.40;30.60;;;;;28.29;65.54;100410.63;5094366;28;8958;-75
2021/07/20 01:20:52;;;;;;;;;33.20;31.00;;;;;28.44;65.18;100411.72;5092821;28;8826;-75
2021/07/20 01:23:51;;;;;;;;;31.60;30.60;;;;;28.60;65.29;100413.59;5093790;28;8851;-75
2021/07/20 01:26:47;;;;;;;;;39.00;32.50;;;;;28.34;65.22;100410.84;5094864;28;8854;-75
2021/07/20 01:29:44;;;;;;;;;33.00;31.00;;;;;28.13;66.14;100420.09;5093290;28;9663;-75
2021/07/20 01:32:40;;;;;;;;;43.75;36.25;;;;;27.67;68.31;100419.59;5090946;28;8816;-75
2021/07/20 01:35:37;;;;;;;;;37.75;33.50;;;;;27.33;70.57;100409.69;5093765;28;9598;-75
2021/07/20 01:38:35;;;;;;;;;43.00;36.50;;;;;27.66;69.98;100415.13;5093723;28;8916;-75
2021/07/20 01:41:32;;;;;;;;;36.75;32.50;;;;;27.93;68.27;100412.66;5092918;28;8874;-76
2021/07/20 01:44:28;;;;;;;;;40.75;34.00;;;;;28.24;67.03;100403.47;5093060;28;8914;-76
2021/07/20 01:47:27;;;;;;;;;43.75;36.50;;;;;28.19;67.77;100407.69;5108445;28;8837;-76
2021/07/20 01:50:23;;;;;;;;;36.40;31.60;;;;;28.16;67.66;100407.81;5113625;28;8948;-75
2021/07/20 01:53:20;;;;;;;;;37.75;34.00;;;;;28.25;67.31;100402.22;5099662;28;8829;-76
2021/07/20 01:56:19;;;;;;;;;44.00;37.00;;;;;27.80;69.65;100408.22;5113660;28;8914;-75
2021/07/20 01:59:16;;;;;;;;;39.75;34.00;;;;;27.85;69.27;100405.63;5113479;28;8909;-76
2021/07/20 02:02:29;;;;;;;;;41.50;36.25;;;;;28.09;68.53;100414.53;5113418;28;8878;-75
2021/07/20 02:08:46;;;;;;;;;36.00;32.25;;;;;27.91;69.34;100417.19;5092596;28;8819;-76
2021/07/20 02:11:44;;;;;;;;;39.75;34.00;;;;;27.94;69.61;100414.22;5092750;28;8850;-75
2021/07/20 02:14:45;;;;;;;;;30.50;29.00;;;;;28.05;69.12;100413.06;5092429;28;8819;-76
2021/07/20 02:17:43;;;;;;;;;42.00;37.00;;;;;28.05;69.11;100418.75;5092617;28;8827;-75
2021/07/20 02:20:42;;;;;;;;;43.50;37.00;;;;;28.21;68.46;100412.91;5093088;28;8828;-75
2021/07/20 02:23:39;;;;;;;;;43.00;37.00;;;;;28.22;68.34;100411.69;5092728;28;8831;-75
2021/07/20 02:26:35;;;;;;;;;40.00;35.00;;;;;27.88;70.82;100415.25;5092664;28;8811;-75
2021/07/20 02:29:32;;;;;;;;;45.50;36.75;;;;;26.91;75.73;100425.91;5092499;28;8870;-76
2021/07/20 02:32:28;;;;;;;;;41.75;36.00;;;;;26.50;78.19;100430.31;5092455;28;8827;-75
2021/07/20 02:35:28;;;;;;;;;43.00;37.00;;;;;27.01;75.10;100421.19;5092708;28;9596;-75
2021/07/20 02:38:25;;;;;;;;;43.25;37.25;;;;;27.53;72.59;100428.53;5093025;28;8859;-75
2021/07/20 02:41:23;;;;;;;;;34.25;31.50;;;;;27.88;70.61;100424.56;5092520;28;8962;-75
2021/07/20 02:44:20;;;;;;;;;40.25;35.50;;;;;28.01;70.21;100421.72;5104720;28;8817;-75
2021/07/20 02:47:18;;;;;;;;;37.00;33.75;;;;;27.90;70.80;100424.91;5112489;28;8995;-75
2021/07/20 02:50:15;;;;;;;;;33.00;31.25;;;;;28.01;70.40;100427.41;5112563;28;8932;-75
2021/07/20 02:53:12;;;;;;;;;41.25;34.00;;;;;28.26;69.23;100430.19;5112754;28;8851;-75
2021/07/20 02:56:11;;;;;;;;;33.20;31.40;;;;;28.01;70.65;100420.94;5112541;28;8932;-76
2021/07/20 02:59:07;;;;;;;;;34.40;31.40;;;;;28.03;70.55;100427.75;5106994;28;8903;-76
2021/07/20 03:02:06;;;;;;;;;31.60;30.20;;;;;27.47;73.35;100438.88;5094448;28;8865;-75
2021/07/20 03:05:04;;;;;;;;;37.75;33.25;;;;;27.11;75.66;100437.91;5093208;28;8877;-75
2021/07/20 03:08:01;;;;;;;;;31.75;30.25;;;;;27.28;74.29;100429.31;5092344;28;8931;-75
2021/07/20 03:10:59;;;;;;;;;34.00;32.00;;;;;27.51;73.29;100425.34;5093470;28;8864;-75
2021/07/20 03:14:01;;;;;;;;;31.40;30.20;;;;;27.84;71.35;100431.66;5091810;28;8820;-75
2021/07/20 03:17:00;;;;;;;;;35.00;32.20;;;;;27.81;71.96;100432.53;5092703;28;8815;-75
2021/07/20 03:19:58;;;;;;;;;32.60;30.60;;;;;27.79;72.58;100426.53;5091210;28;8807;-75
2021/07/20 03:22:55;;;;;;;;;35.20;32.20;;;;;27.61;74.11;100439.25;5092299;28;8907;-74
2021/07/20 03:25:55;;;;;;;;;38.75;33.75;;;;;27.54;73.29;100435.81;5091778;28;8820;-76
2021/07/20 03:28:52;;;;;;;;;30.50;29.00;;;;;27.84;72.34;100446.66;5092069;28;8858;-75
2021/07/20 03:31:50;;;;;;;;;35.75;32.75;;;;;27.80;72.64;100443.13;5102867;28;9572;-75
2021/07/20 03:34:46;;;;;;;;;45.25;36.75;;;;;27.80;71.88;100448.00;5091741;28;8846;-75
2021/07/20 03:37:43;;;;;;;;;40.50;35.75;;;;;27.87;72.01;100453.44;5104508;28;8821;-75
2021/07/20 03:40:38;;;;;;;;;38.50;34.50;;;;;27.97;71.69;100457.97;5112220;28;8838;-75
2021/07/20 03:43:35;;;;;;;;;37.50;33.50;;;;;27.90;71.89;100441.16;5111825;28;8871;-75
2021/07/20 03:46:31;;;;;;;;;44.25;37.50;;;;;28.08;70.63;100447.06;5111992;28;8956;-75
2021/07/20 03:49:28;;;;;;;;;41.50;34.25;;;;;28.07;70.56;100450.38;5103231;28;8846;-74
2021/07/20 03:52:25;;;;;;;;;47.00;38.00;;;;;28.09;69.76;100454.34;5091668;28;8859;-76
2021/07/20 03:55:21;;;;;;;;;45.25;37.00;;;;;28.21;69.85;100449.88;5094621;28;8856;-75
2021/07/20 03:58:18;;;;;;;;;36.00;32.00;;;;;28.34;69.44;100452.72;5095295;28;8820;-75
2021/07/20 04:01:14;;;;;;;;;47.00;37.50;;;;;28.42;69.24;100448.38;5095253;28;8823;-75
2021/07/20 04:04:13;;;;;;;;;42.50;36.75;;;;;28.51;68.91;100454.13;5095060;28;8827;-75
2021/07/20 04:07:14;;;;;;;;;45.50;38.25;;;;;28.62;68.35;100450.94;5094807;28;8824;-75
2021/07/20 04:10:10;;;;;;;;;44.00;37.75;;;;;28.63;68.18;100450.47;5094785;28;8836;-75
2021/07/20 04:12:41;;;;;;;;;44.50;38.00;;;;;28.74;68.14;100455.75;5096335;28;8835;-75
2021/07/20 04:15:13;;;;;;;;;45.25;37.75;;;;;28.66;68.38;100460.91;5096527;28;8840;-74
2021/07/20 04:18:10;;;;;;;;;47.80;37.20;;;;;28.76;67.73;100453.25;5081239;28;8832;-75
2021/07/20 04:20:38;;;;;;;;;52.25;40.50;;;;;28.74;67.28;100453.69;5095846;28;8811;-74
2021/07/20 04:23:37;;;;;;;;;55.75;40.50;;;;;28.83;67.03;100455.81;5095618;28;9002;-74
2021/07/20 04:26:08;;;;;;;;;47.75;38.00;;;;;28.64;66.87;100446.34;5106566;28;8841;-75
2021/07/20 04:28:36;;;;;;;;;43.80;37.00;;;;;28.75;66.72;100455.28;5116239;28;8856;-74
2021/07/20 04:31:32;;;;;;;;;41.80;36.40;;;;;28.87;67.11;100450.00;5113990;28;9606;-75
2021/07/20 04:34:29;;;;;;;;;43.60;37.00;;;;;28.91;67.02;100448.66;5109738;28;8834;-75
2021/07/20 04:37:28;;;;;;;;;43.60;36.00;;;;;28.92;66.55;100449.47;5094768;28;8859;-74
2021/07/20 04:40:24;;;;;;;;;35.80;32.00;;;;;29.06;66.30;100451.75;5095264;28;8851;-74
2021/07/20 04:43:20;;;;;;;;;44.20;35.80;;;;;29.12;65.53;100455.59;5094557;28;8860;-75
2021/07/20 04:46:19;;;;;;;;;31.60;30.00;;;;;29.16;65.58;100447.72;5093877;28;8916;-75
2021/07/20 04:49:15;;;;;;;;;38.20;33.40;;;;;29.24;65.36;100446.19;5093971;28;8859;-74
2021/07/20 04:52:12;;;;;;;;;35.80;31.60;;;;;29.27;65.30;100445.25;5093899;28;8824;-74
2021/07/20 04:55:09;;;;;;;;;35.80;32.00;;;;;29.23;64.73;100450.28;5094544;28;8863;-74
2021/07/20 04:58:06;;;;;;;;;41.80;34.20;;;;;29.20;64.84;100447.56;5094676;28;8824;-75
2021/07/20 05:01:03;;;;;;;;;36.60;31.20;;;;;29.13;64.69;100451.47;5080195;28;8914;-75
2021/07/20 05:04:02;;;;;;;;;42.60;34.20;;;;;29.29;64.53;100450.47;5094988;28;8942;-74
2021/07/20 05:06:57;;;;;;;;;34.80;31.60;;;;;29.47;64.40;100461.97;5093948;28;8843;-75
2021/07/20 05:09:54;;;;;;;;;34.60;31.00;;;;;29.58;64.07;100455.88;5094476;28;9576;-75
2021/07/20 05:12:49;;;;;;;;;38.60;33.20;;;;;29.62;62.97;100457.34;5094040;28;8839;-74
2021/07/20 05:15:47;;;;;;;;;33.40;30.80;;;;;29.70;63.92;100449.28;5094071;28;8953;-74
2021/07/20 05:18:44;;;;;;;;;35.80;32.60;;;;;29.79;63.84;100455.03;5107609;28;8829;-75
2021/07/20 05:21:44;;;;;;;;;39.60;33.60;;;;;29.64;63.41;100451.16;5110211;28;9596;-76
2021/07/20 05:24:40;;;;;;;;;38.20;31.00;;;;;29.84;63.87;100462.97;5114005;28;8911;-75
2021/07/20 05:27:44;;;;;;;;;30.20;29.20;;;;;30.00;64.15;100458.25;5113903;28;8928;-75
2021/07/20 05:30:41;;;;;;;;;49.20;39.80;;;;;30.10;63.33;100460.69;5103079;28;8877;-77
2021/07/20 05:33:39;;;;;;;;;48.40;40.40;;;;;30.04;62.66;100459.69;5096608;28;8859;-76
2021/07/20 05:36:35;;;;;;;;;44.40;37.00;;;;;30.29;62.83;100472.13;5094353;28;8847;-75
2021/07/20 05:39:32;;;;;;;;;52.80;40.40;;;;;30.44;62.31;100464.53;5109292;28;8821;-75
2021/07/20 05:42:31;;;;;;;;;59.50;45.00;;;;;30.55;61.78;100469.78;5114062;28;8948;-76
2021/07/20 05:45:27;;;;;;;;;62.00;50.25;;;;;30.47;62.32;100469.31;5111612;28;8849;-75
2021/07/20 05:48:24;;;;;;;;;59.25;45.00;;;;;30.54;62.23;100473.91;5099596;28;8954;-77
2021/07/20 05:51:21;;;;;;;;;55.60;43.80;;;;;30.78;61.77;100479.81;5108807;28;8877;-76
2021/07/20 05:54:17;;;;;;;;;60.50;48.00;;;;;30.93;61.51;100481.56;5111422;28;8855;-75
2021/07/20 05:57:14;;;;;;;;;60.75;49.25;;;;;31.08;61.64;100493.13;5093090;28;8815;-77
2021/07/20 06:00:10;;;;;;;;;74.50;63.50;;;;;31.04;60.84;100488.84;5106579;28;8937;-77
2021/07/20 06:03:06;;;;;;;;;77.75;64.25;;;;;31.38;59.75;100493.44;5094160;28;8962;-78
2021/07/20 06:06:03;;;;;;;;;72.75;59.50;;;;;31.55;60.63;100494.66;5107918;28;8825;-79
2021/07/20 06:08:59;;;;;;;;;75.50;63.25;;;;;31.55;59.22;100498.28;5093725;28;8843;-78
2021/07/20 06:11:57;;;;;;;;;74.25;60.00;;;;;31.84;59.72;100496.16;5094314;28;8970;-78
2021/07/20 06:14:55;;;;;;;;;72.75;63.25;;;;;31.90;58.86;100511.38;5110422;28;8916;-78
2021/07/20 06:17:51;;;;;;;;;73.00;62.00;;;;;32.04;58.77;100511.47;5089340;28;8839;-78
2021/07/20 06:20:53;;;;;;;;;84.75;64.25;;;;;32.12;59.52;100513.97;5092593;28;8903;-78
2021/07/20 06:23:51;;;;;;;;;82.50;67.50;;;;;32.43;57.39;100505.88;5104245;28;8833;-77
2021/07/20 06:26:47;;;;;;;;;80.75;75.25;;;;;32.52;57.65;100510.75;5092708;28;9580;-77
2021/07/20 06:29:45;;;;;;;;;77.50;73.25;;;;;32.69;57.23;100503.31;5109577;28;8810;-78
2021/07/20 06:32:41;;;;;;;;;74.25;65.50;;;;;32.75;56.55;100506.28;5092282;28;8819;-77
2021/07/20 06:35:40;;;;;;;;;84.75;71.25;;;;;32.69;56.23;100500.44;5093962;28;8835;-78
2021/07/20 06:38:37;;;;;;;;;94.33;84.67;;;;;32.60;55.60;100489.88;5092342;28;8870;-78
2021/07/20 06:41:37;;;;;;;;;102.75;86.00;;;;;32.56;54.43;100494.19;5092483;28;9016;-76
2021/07/20 06:44:35;;;;;;;;;99.00;85.33;;;;;32.76;55.21;100496.44;5092863;28;8827;-77
2021/07/20 06:47:37;;;;;;;;;100.50;78.50;;;;;32.77;54.36;100500.88;5093338;28;8921;-77
2021/07/20 06:50:33;;;;;;;;;93.50;81.00;;;;;33.01;53.67;100490.19;5092777;28;8840;-79
2021/07/20 06:53:31;;;;;;;;;80.00;72.00;;;;;33.11;53.41;100485.16;5086937;28;8960;-78
2021/07/20 06:56:32;;;;;;;;;70.50;56.00;;;;;33.20;52.21;100496.50;5103529;28;8837;-78
2021/07/20 06:59:29;;;;;;;;;66.25;53.25;;;;;33.46;52.39;100491.81;5123274;28;8946;-78
2021/07/20 07:02:26;;;;;;;;;67.25;53.25;;;;;33.52;51.26;100488.25;5108768;28;8841;-77
2021/07/20 07:05:25;;;;;;;;;60.50;48.50;;;;;33.28;49.55;100491.19;5097035;28;8837;-76
2021/07/20 07:08:23;;;;;;;;;65.50;52.50;;;;;33.54;49.88;100485.69;5079131;28;8854;-77
2021/07/20 07:11:19;;;;;;;;;71.00;58.50;;;;;33.55;49.75;100493.00;5092522;28;8844;-77
2021/07/20 07:14:15;;;;;;;;;62.50;50.50;;;;;33.85;48.84;100493.75;5092336;28;8823;-77
2021/07/20 07:17:11;;;;;;;;;73.75;61.75;;;;;33.94;49.07;100496.53;5095467;28;8898;-77
2021/07/20 07:20:08;;;;;;;;;51.00;42.40;;;;;34.00;48.10;100495.31;5110545;28;8920;-78
2021/07/20 07:23:06;;;;;;;;;43.40;34.00;;;;;33.89;46.60;100486.56;5101837;28;8857;-77
2021/07/20 07:26:03;;;;;;;;;35.40;32.60;;;;;34.14;46.55;100487.19;5079168;28;8831;-77
2021/07/20 07:28:59;;;;;;;;;26.20;26.20;;;;;34.20;45.86;100482.28;5092270;28;8859;-78
2021/07/20 07:31:56;;;;;;;;;31.80;30.00;;;;;34.44;45.82;100490.75;5094448;28;8822;-78
2021/07/20 07:34:51;;;;;;;;;29.80;28.80;;;;;34.59;45.51;100488.59;5101683;28;8853;-78
2021/07/20 07:37:48;;;;;;;;;29.60;28.80;;;;;34.46;44.86;100491.81;5116350;28;8826;-78
2021/07/20 07:40:55;;;;;;;;;32.60;30.60;;;;;34.55;46.72;100483.06;5102864;28;8833;-77
2021/07/20 07:43:54;;;;;;;;;32.80;31.00;;;;;35.04;45.32;100483.38;5115797;28;9590;-77
2021/07/20 07:46:51;;;;;;;;;11.20;10.80;;;;;35.34;43.23;100483.94;5088762;28;9597;-81
2021/07/20 07:49:48;;;;;;;;;29.80;27.40;;;;;35.33;43.43;100488.13;5095590;28;9577;-80
2021/07/20 07:52:43;;;;;;;;;29.40;28.40;;;;;35.31;43.39;100482.88;5082720;28;8842;-79
2021/07/20 07:55:39;;;;;;;;;24.80;24.80;;;;;35.34;43.73;100487.59;5099258;28;9605;-80
2021/07/20 07:58:38;;;;;;;;;30.00;28.20;;;;;35.43;43.17;100483.81;5111514;28;8844;-81
2021/07/20 08:01:37;;;;;;;;;30.40;28.40;;;;;35.34;42.40;100481.84;5102211;28;8821;-79
2021/07/20 08:04:35;;;;;;;;;26.60;26.60;;;;;35.72;42.59;100487.69;5095939;28;8831;-80
2021/07/20 08:07:32;;;;;;;;;29.20;28.80;;;;;35.73;42.35;100480.63;5095437;28;8811;-79
2021/07/20 08:10:30;;;;;;;;;27.00;26.20;;;;;35.67;41.56;100491.34;5106984;28;8829;-80
2021/07/20 08:13:27;;;;;;;;;47.20;37.20;;;;;35.36;41.73;100484.25;5101962;28;8933;-78
2021/07/20 08:16:25;;;;;;;;;47.80;38.60;;;;;34.97;42.05;100484.66;5115573;28;8829;-78
2021/07/20 08:19:21;;;;;;;;;42.40;35.60;;;;;35.20;42.00;100487.75;5102782;28;9049;-80
2021/07/20 08:22:19;;;;;;;;;30.00;29.00;;;;;35.33;41.06;100488.91;5107265;28;8907;-80
2021/07/20 08:25:25;;;;;;;;;22.00;22.00;;;;;35.30;41.67;100486.28;5095195;28;8855;-78
2021/07/20 08:29:00;;;;;;;;;30.80;29.80;;;;;35.78;41.97;100480.69;5094824;28;8831;-78
2021/07/20 08:32:02;;;;;;;;;27.00;26.80;;;;;36.05;41.28;100478.56;5013014;28;8852;-78
2021/07/20 08:35:02;;;;;;;;;26.60;26.20;;;;;36.12;42.15;100483.84;5093780;28;9592;-79
2021/07/20 08:38:09;;;;;;;;;25.20;23.60;;;;;36.28;42.58;100483.13;5094743;28;8951;-78
2021/07/20 08:41:10;;;;;;;;;20.40;20.40;;;;;36.20;40.97;100479.19;5080325;28;8909;-78
2021/07/20 08:44:21;;;;;;;;;23.20;22.80;;;;;36.32;41.03;100477.91;5094515;28;8904;-78
2021/07/20 08:47:27;;;;;;;;;25.40;24.00;;;;;36.23;42.57;100475.25;5094174;28;8855;-78
2021/07/20 08:50:55;;;;;;;;;25.20;24.80;;;;;36.52;43.04;100473.34;5097550;28;8841;-80
2021/07/20 08:54:01;;;;;;;;;29.80;28.00;;;;;36.78;41.52;100473.94;5081695;28;8920;-80
2021/07/20 08:57:01;;;;;;;;;26.60;25.00;;;;;36.31;42.69;100470.59;5094361;28;8858;-77
2021/07/20 09:00:15;;;;;;;;;21.60;21.60;;;;;36.91;42.37;100462.75;5115457;28;8952;-81
2021/07/20 09:03:32;;;;;;;;;24.20;23.00;;;;;37.06;40.51;100462.53;5117058;28;8852;-85
2021/07/20 09:06:49;;;;;;;;;24.80;24.80;;;;;37.30;39.52;100465.69;5107789;28;8942;-87
2021/07/20 09:09:49;;;;;;;;;22.20;22.00;;;;;37.15;39.48;100465.16;5101941;28;8861;-85
2021/07/20 09:12:49;;;;;;;;;25.00;24.40;;;;;37.10;40.28;100456.47;5114719;28;8980;-83
2021/07/20 09:16:09;;;;;;;;;23.00;23.00;;;;;37.30;39.05;100464.91;5099913;28;8832;-85
2021/07/20 09:19:31;;;;;;;;;28.60;28.20;;;;;37.28;39.48;100465.44;5092903;28;8906;-82
2021/07/20 09:23:09;;;;;;;;;29.60;28.60;;;;;37.31;39.73;100460.72;5116654;28;8849;-80
2021/07/20 09:26:11;;;;;;;;;34.80;31.00;;;;;37.54;39.17;100452.88;5115320;28;8999;-86
2021/07/20 09:29:14;;;;;;;;;38.80;34.40;;;;;37.40;38.10;100463.34;5112605;28;8849;-84
2021/07/20 09:32:25;;;;;;;;;25.60;23.60;;;;;37.40;36.68;100451.03;5114176;28;8895;-83
2021/07/20 09:35:27;;;;;;;;;22.40;22.40;;;;;37.69;37.75;100447.63;5100173;28;8872;-81
2021/07/20 09:38:28;;;;;;;;;24.40;23.80;;;;;37.22;37.71;100455.19;5099271;28;9616;-82
2021/07/20 09:41:54;;;;;;;;;20.40;20.40;;;;;37.78;37.91;100455.25;5079677;28;8828;-82
2021/07/20 09:45:08;;;;;;;;;16.20;16.20;;;;;37.62;36.51;100453.91;5095887;28;8858;-81
2021/07/20 09:48:23;;;;;;;;;21.20;19.60;;;;;37.71;36.16;100447.09;5094729;28;8833;-81
2021/07/20 09:51:32;;;;;;;;;18.80;17.20;;;;;37.94;35.01;100448.66;5103223;28;8913;-80
2021/07/20 09:54:45;;;;;;;;;22.60;20.00;;;;;37.82;33.90;100453.66;5094327;28;8844;-83
2021/07/20 09:57:50;;;;;;;;;19.40;17.80;;;;;37.99;32.75;100456.53;5097114;28;9706;-82
2021/07/20 10:01:10;;;;;;;;;24.60;23.00;;;;;37.48;34.39;100437.66;5100988;28;8869;-82
2021/07/20 10:04:24;;;;;;;;;25.80;23.80;;;;;37.90;34.20;100444.47;5092255;28;8849;-82
2021/07/20 10:07:40;;;;;;;;;19.00;19.00;;;;;38.23;32.35;100435.72;5093776;28;8887;-83
2021/07/20 10:10:51;;;;;;;;;17.80;17.80;;;;;37.87;32.35;100440.53;5096591;28;8851;-83
2021/07/20 10:14:09;;;;;;;;;16.80;16.80;;;;;37.87;30.58;100440.53;5100824;28;8828;-83
2021/07/20 10:17:14;;;;;;;;;22.60;20.80;;;;;37.83;32.19;100437.13;5091776;28;8867;-86
2021/07/20 10:20:16;;;;;;;;;24.00;23.60;;;;;37.77;32.77;100439.22;5099146;28;8859;-84
2021/07/20 10:23:22;;;;;;;;;21.00;21.00;;;;;38.01;31.72;100430.78;5097183;28;8859;-86
2021/07/20 10:26:20;;;;;;;;;21.40;20.80;;;;;38.38;32.33;100426.75;5105695;28;8861;-85
2021/07/20 10:29:31;;;;;;;;;18.20;18.20;;;;;38.39;32.89;100429.09;5091205;28;8840;-87
2021/07/20 10:32:40;;;;;;;;;19.40;19.40;;;;;38.36;33.97;100423.63;5105426;28;8942;-83
2021/07/20 10:36:03;;;;;;;;;22.80;22.40;;;;;38.41;35.07;100424.91;5103828;28;8863;-84
2021/07/20 10:39:09;;;;;;;;;27.40;23.20;;;;;38.56;33.51;100422.47;5093950;28;8870;-86
2021/07/20 10:42:26;;;;;;;;;25.00;22.80;;;;;38.38;33.34;100418.09;5080003;28;8856;-84
2021/07/20 10:45:24;;;;;;;;;24.20;24.00;;;;;38.02;33.38;100414.25;5080840;28;8839;-80
2021/07/20 10:48:24;;;;;;;;;29.20;28.00;;;;;38.33;33.73;100416.78;5079157;28;9509;-83
2021/07/20 10:51:25;;;;;;;;;31.20;30.00;;;;;38.43;33.81;100419.41;5081723;28;8912;-87
2021/07/20 10:54:28;;;;;;;;;35.40;31.00;;;;;38.39;34.69;100417.56;5095322;28;8855;-85
2021/07/20 10:57:33;;;;;;;;;42.80;36.00;;;;;38.56;34.00;100413.78;5094723;28;8824;-83
2021/07/20 11:00:52;;;;;;;;;49.00;40.20;;;;;38.50;34.44;100418.84;5079379;28;8859;-81
2021/07/20 11:03:31;;;;;;;;;44.80;38.40;;;;;38.43;34.12;100414.41;5076620;28;8839;-82
2021/07/20 11:06:02;;;;;;;;;36.00;31.40;;;;;38.48;33.68;100409.91;5094319;28;8868;-83
2021/07/20 11:08:44;;;;;;;;;26.20;26.00;;;;;38.40;33.51;100409.66;5080634;28;8817;-84
2021/07/20 11:11:41;;;;;;;;;27.00;25.60;;;;;38.91;34.18;100395.75;5117873;28;8834;-84
2021/07/20 11:14:49;;;;;;;;;30.00;28.80;;;;;38.67;32.63;100393.53;5094072;28;8836;-84
2021/07/20 11:17:21;;;;;;;;;28.00;27.80;;;;;38.60;33.76;100394.88;5096072;28;9561;-85
2021/07/20 11:20:20;;;;;;;;;22.40;22.40;;;;;38.60;33.37;100386.19;5094327;28;8820;-83
2021/07/20 11:23:19;;;;;;;;;22.40;22.40;;;;;38.38;33.68;100390.00;5092608;28;8953;-81
2021/07/20 11:26:17;;;;;;;;;14.60;14.60;;;;;38.50;32.43;100375.50;5096008;28;8858;-82
2021/07/20 11:29:13;;;;;;;;;28.00;25.80;;;;;38.47;33.04;100371.56;5106411;28;8860;-82
2021/07/20 11:32:15;;;;;;;;;28.60;27.20;;;;;38.41;34.73;100382.34;5092823;28;9545;-82
2021/07/20 11:35:21;;;;;;;;;34.40;31.00;;;;;38.66;34.11;100375.41;5110891;28;8845;-84
2021/07/20 11:38:21;;;;;;;;;28.40;28.40;;;;;38.81;32.47;100375.06;5125324;28;8848;-86
2021/07/20 11:41:36;;;;;;;;;24.20;24.20;;;;;39.06;32.40;100370.13;5090067;28;8935;-83
2021/07/20 11:44:56;;;;;;;;;24.80;24.80;;;;;38.79;33.86;100380.56;5101541;28;8846;-85
2021/07/20 11:48:04;;;;;;;;;23.40;23.40;;;;;38.90;33.03;100376.84;5102053;28;8828;-83
2021/07/20 11:51:35;;;;;;;;;19.40;19.40;;;;;39.19;33.22;100366.66;5094229;28;9002;-84
2021/07/20 11:55:06;;;;;;;;;11.20;11.00;;;;;38.98;33.13;100365.47;5093209;28;8835;-82
2021/07/20 11:58:02;;;;;;;;;23.20;21.20;;;;;38.92;33.20;100368.41;5097032;28;8825;-84
2021/07/20 12:01:54;;;;;;;;;22.40;22.40;;;;;39.30;32.07;100363.66;5093622;28;8818;-85
2021/07/20 12:05:11;;;;;;;;;35.20;31.80;;;;;39.04;32.47;100357.56;5101182;28;8819;-85
2021/07/20 12:08:19;;;;;;;;;31.20;29.20;;;;;38.80;32.51;100356.16;5097986;28;8833;-82
2021/07/20 12:11:21;;;;;;;;;22.60;22.60;;;;;39.25;32.92;100358.69;5112383;28;8853;-82
2021/07/20 12:14:17;;;;;;;;;24.80;24.80;;;;;39.25;32.93;100355.00;5112727;28;8833;-82
2021/07/20 12:17:14;;;;;;;;;17.40;16.60;;;;;39.32;32.71;100357.31;5101871;28;8829;-86
2021/07/20 12:20:13;;;;;;;;;26.80;26.80;;;;;38.92;33.43;100359.75;5101614;28;8933;-82
2021/07/20 12:23:11;;;;;;;;;20.00;19.60;;;;;39.15;33.71;100360.38;5109671;28;8833;-85
2021/07/20 12:26:09;;;;;;;;;28.60;26.80;;;;;39.22;32.81;100354.00;5087545;28;8936;-86
2021/07/20 12:29:10;;;;;;;;;14.60;13.80;;;;;39.44;32.73;100350.09;5097378;28;8848;-85
2021/07/20 12:32:13;;;;;;;;;24.80;24.80;;;;;39.20;33.20;100347.97;5095335;28;8814;-85
2021/07/20 12:35:14;;;;;;;;;28.80;28.60;;;;;39.67;33.35;100353.56;5079679;28;8834;-85
2021/07/20 12:38:11;;;;;;;;;26.00;25.80;;;;;39.81;31.88;100346.59;5095044;28;8983;-85
2021/07/20 12:41:12;;;;;;;;;54.00;41.40;;;;;39.74;32.52;100350.09;5095916;28;8979;-90
2021/07/20 12:44:08;;;;;;;;;55.20;42.00;;;;;39.68;32.25;100349.34;5084351;28;8971;-90
2021/07/20 12:47:11;;;;;;;;;45.80;36.80;;;;;39.61;32.82;100347.84;5103596;28;8826;-88
2021/07/20 12:50:09;;;;;;;;;48.20;39.20;;;;;39.42;31.83;100344.88;5095183;28;9591;-89
2021/07/20 12:53:05;;;;;;;;;44.80;35.40;;;;;39.10;32.46;100346.69;5088646;28;8940;-87
2021/07/20 12:56:02;;;;;;;;;29.40;28.20;;;;;39.31;32.99;100347.84;5090537;28;8816;-85
2021/07/20 12:59:01;;;;;;;;;35.60;32.60;;;;;39.47;32.53;100346.91;5107864;28;8886;-89
2021/07/20 13:01:56;;;;;;;;;39.20;32.40;;;;;39.32;31.36;100346.53;5085023;28;8859;-88
2021/07/20 13:04:55;;;;;;;;;10.20;9.40;;;;;39.07;32.13;100350.69;5103511;28;8925;-92
2021/07/20 13:07:51;;;;;;;;;27.20;26.40;;;;;39.21;33.41;100349.53;5104816;28;8834;-88
2021/07/20 13:10:52;;;;;;;;;16.80;16.80;;;;;39.04;31.86;100343.88;5113698;28;8835;-86
2021/07/20 13:13:48;;;;;;;;;20.80;20.00;;;;;39.47;31.73;100341.13;5090799;28;9027;-85
2021/07/20 13:16:46;;;;;;;;;26.00;24.40;;;;;39.79;32.14;100337.63;5086044;28;8874;-87
2021/07/20 13:19:45;;;;;;;;;32.00;29.40;;;;;39.37;31.87;100337.03;5087329;28;8848;-84
2021/07/20 13:22:41;;;;;;;;;28.80;28.40;;;;;39.36;31.03;100334.69;5090946;28;9892;-83
2021/07/20 13:25:40;;;;;;;;;26.60;26.40;;;;;39.49;31.77;100331.88;5102081;28;8861;-88
2021/07/20 13:28:35;;;;;;;;;30.40;29.60;;;;;39.13;31.36;100331.19;5100290;28;8960;-86
2021/07/20 13:31:38;;;;;;;;;26.80;26.80;;;;;39.27;32.69;100330.03;5091955;28;8874;-88
2021/07/20 13:34:34;;;;;;;;;23.00;23.00;;;;;39.20;32.81;100328.50;5101853;28;9617;-87
2021/07/20 13:37:31;;;;;;;;;19.20;19.20;;;;;39.17;32.51;100328.78;5093150;28;8850;-88
2021/07/20 13:40:32;;;;;;;;;29.80;28.40;;;;;39.12;31.75;100321.72;5084507;28;8843;-88
2021/07/20 13:43:30;;;;;;;;;27.40;23.40;;;;;38.90;32.03;100310.38;5071578;28;9009;-88
2021/07/20 13:46:29;;;;;;;;;29.20;27.60;;;;;38.67;32.65;100312.63;5085173;28;8881;-89
2021/07/20 13:49:26;;;;;;;;;35.80;29.80;;;;;38.28;32.24;100319.44;5101460;28;8849;-81